createdAt,value
2022-09-18T00:01:33.674Z,9.55
2022-09-18T00:04:04.873Z,9.50
2022-09-18T00:06:36.765Z,9.50
2022-09-18T00:09:06.949Z,9.38
2022-09-18T00:11:41.519Z,9.38
2022-09-18T00:14:12.521Z,9.43
2022-09-18T00:16:40.464Z,9.46
2022-09-18T00:19:08.557Z,9.52
2022-09-18T00:21:37.554Z,9.44
2022-09-18T00:24:05.880Z,9.34
2022-09-18T00:26:33.514Z,9.44
2022-09-18T00:29:00.870Z,9.32
2022-09-18T00:31:36.770Z,9.35
2022-09-18T00:34:10.579Z,9.28
2022-09-18T00:36:39.464Z,9.25
2022-09-18T00:39:08.102Z,9.29
2022-09-18T00:41:39.541Z,9.27
2022-09-18T00:44:39.297Z,9.18
2022-09-18T00:47:18.109Z,9.13
2022-09-18T00:50:21.263Z,9.09
2022-09-18T00:53:02.048Z,9.16
2022-09-18T00:55:34.428Z,9.14
2022-09-18T00:58:03.370Z,9.11
2022-09-18T01:00:31.801Z,9.12
2022-09-18T01:03:04.149Z,9.14
2022-09-18T01:06:20.842Z,9.11
2022-09-18T01:09:37.197Z,8.99
2022-09-18T01:12:20.274Z,9.01
2022-09-18T01:15:14.821Z,9.06
2022-09-18T01:18:05.319Z,9.07
2022-09-18T01:21:01.796Z,9.20
2022-09-18T01:24:07.951Z,9.01
2022-09-18T01:27:10.682Z,9.08
2022-09-18T01:29:50.530Z,9.10
2022-09-18T01:32:46.169Z,9.03
2022-09-18T01:35:42.593Z,9.04
2022-09-18T01:38:36.165Z,9.07
2022-09-18T01:41:14.586Z,9.08
2022-09-18T01:43:44.436Z,9.04
2022-09-18T01:46:17.732Z,8.89
2022-09-18T01:49:07.334Z,8.91
2022-09-18T01:52:01.561Z,8.73
2022-09-18T01:54:35.629Z,8.70
2022-09-18T01:57:42.925Z,8.49
2022-09-18T02:00:14.408Z,8.42
2022-09-18T02:02:58.337Z,8.42
2022-09-18T02:05:37.676Z,8.38
2022-09-18T02:08:21.008Z,8.25
2022-09-18T02:11:03.243Z,8.22
2022-09-18T02:13:42.394Z,8.15
2022-09-18T02:16:21.117Z,8.10
2022-09-18T02:18:56.391Z,8.06
2022-09-18T02:21:28.644Z,8.06
2022-09-18T02:24:10.497Z,8.03
2022-09-18T02:26:40.554Z,8.00
2022-09-18T02:29:12.417Z,7.76
2022-09-18T02:31:41.359Z,7.81
2022-09-18T02:34:11.575Z,7.81
2022-09-18T02:37:00.368Z,7.78
2022-09-18T02:40:31.370Z,7.75
2022-09-18T02:43:33.089Z,7.62
2022-09-18T02:46:29.001Z,7.53
2022-09-18T02:49:23.775Z,7.57
2022-09-18T02:52:25.729Z,7.62
2022-09-18T02:55:18.886Z,7.61
2022-09-18T02:58:00.809Z,7.59
2022-09-18T03:00:31.554Z,7.56
2022-09-18T03:03:00.399Z,7.67
2022-09-18T03:05:39.809Z,7.70
2022-09-18T03:08:07.190Z,7.77
2022-09-18T03:10:34.481Z,7.75
2022-09-18T03:13:01.944Z,7.81
2022-09-18T03:15:29.187Z,7.89
2022-09-18T03:17:57.889Z,7.81
2022-09-18T03:20:28.330Z,7.82
2022-09-18T03:22:55.616Z,7.81
2022-09-18T03:25:22.912Z,7.78
2022-09-18T03:27:57.650Z,7.73
2022-09-18T03:30:36.516Z,7.60
2022-09-18T03:33:04.230Z,7.70
2022-09-18T03:35:32.476Z,7.70
2022-09-18T03:37:59.878Z,7.75
2022-09-18T03:40:30.505Z,7.65
2022-09-18T03:42:59.053Z,7.61
2022-09-18T03:45:26.830Z,7.63
2022-09-18T03:47:57.355Z,7.57
2022-09-18T03:50:25.479Z,7.66
2022-09-18T03:52:53.406Z,7.63
2022-09-18T03:55:43.836Z,7.60
2022-09-18T03:58:45.883Z,7.62
2022-09-18T04:01:26.674Z,7.59
2022-09-18T04:04:13.311Z,7.59
2022-09-18T04:07:07.973Z,7.47
2022-09-18T04:09:53.771Z,7.44
2022-09-18T04:12:21.084Z,7.51
2022-09-18T04:14:56.712Z,7.34
2022-09-18T04:17:24.321Z,7.32
2022-09-18T04:19:53.785Z,7.28
2022-09-18T04:22:22.522Z,7.26
2022-09-18T04:24:50.622Z,7.21
2022-09-18T04:27:18.699Z,7.13
2022-09-18T04:29:46.394Z,7.17
2022-09-18T04:32:15.041Z,7.20
2022-09-18T04:34:43.369Z,7.21
2022-09-18T04:37:11.601Z,7.09
2022-09-18T04:39:39.688Z,7.18
2022-09-18T04:42:06.994Z,7.15
2022-09-18T04:44:34.361Z,7.13
2022-09-18T04:47:02.167Z,7.21
2022-09-18T04:49:29.418Z,7.26
2022-09-18T04:51:56.732Z,7.29
2022-09-18T04:54:24.886Z,7.31
2022-09-18T04:56:52.472Z,7.30
2022-09-18T04:59:20.166Z,7.37
2022-09-18T05:01:48.400Z,7.39
2022-09-18T05:04:16.718Z,7.52
2022-09-18T05:06:53.118Z,7.66
2022-09-18T05:09:20.467Z,7.71
2022-09-18T05:11:47.691Z,7.82
2022-09-18T05:14:16.549Z,7.88
2022-09-18T05:16:47.744Z,7.89
2022-09-18T05:19:26.806Z,8.07
2022-09-18T05:22:00.550Z,7.98
2022-09-18T05:24:27.869Z,7.99
2022-09-18T05:26:55.092Z,8.15
2022-09-18T05:29:22.992Z,8.13
2022-09-18T05:31:52.538Z,8.18
2022-09-18T05:34:19.925Z,8.25
2022-09-18T05:36:47.337Z,8.20
2022-09-18T05:39:17.629Z,8.15
2022-09-18T05:41:48.337Z,8.10
2022-09-18T05:44:15.631Z,8.01
2022-09-18T05:46:43.119Z,7.99
2022-09-18T05:49:11.103Z,8.03
2022-09-18T05:51:39.192Z,7.96
2022-09-18T05:54:07.919Z,8.10
2022-09-18T05:56:41.923Z,8.01
2022-09-18T05:59:09.335Z,8.06
2022-09-18T06:01:36.681Z,8.11
2022-09-18T06:04:16.967Z,8.17
2022-09-18T06:07:05.438Z,8.39
2022-09-18T06:09:33.180Z,8.63
2022-09-18T06:12:00.560Z,8.55
2022-09-18T06:14:27.840Z,8.51
2022-09-18T06:16:55.684Z,8.54
2022-09-18T06:19:23.067Z,8.64
2022-09-18T06:21:52.654Z,8.47
2022-09-18T06:24:21.547Z,8.61
2022-09-18T06:27:06.971Z,8.76
2022-09-18T06:29:34.596Z,8.77
2022-09-18T06:32:24.950Z,9.07
2022-09-18T06:34:54.007Z,9.44
2022-09-18T06:37:21.391Z,10.05
2022-09-18T06:40:25.708Z,9.95
2022-09-18T06:43:31.530Z,9.88
2022-09-18T06:46:11.533Z,9.93
2022-09-18T06:48:43.933Z,10.06
2022-09-18T06:51:12.329Z,10.31
2022-09-18T06:53:59.527Z,10.15
2022-09-18T06:56:26.791Z,10.09
2022-09-18T06:58:55.142Z,10.34
2022-09-18T07:01:22.637Z,10.48
2022-09-18T07:03:53.436Z,10.49
2022-09-18T07:06:24.080Z,10.88
2022-09-18T07:08:53.400Z,12.46
2022-09-18T07:11:40.880Z,12.74
2022-09-18T07:14:09.381Z,12.17
2022-09-18T07:16:37.074Z,11.22
2022-09-18T07:19:04.818Z,10.74
2022-09-18T07:21:32.144Z,10.65
2022-09-18T07:23:59.344Z,10.51
2022-09-18T07:26:26.734Z,10.43
2022-09-18T07:28:54.250Z,11.57
2022-09-18T07:31:27.255Z,12.89
2022-09-18T07:33:56.399Z,13.54
2022-09-18T07:36:28.139Z,14.19
2022-09-18T07:38:56.373Z,14.88
2022-09-18T07:41:27.032Z,17.58
2022-09-18T07:43:55.035Z,18.34
2022-09-18T07:46:22.560Z,17.33
2022-09-18T07:48:52.818Z,16.02
2022-09-18T07:51:27.395Z,16.63
2022-09-18T07:53:56.683Z,18.62
2022-09-18T07:56:38.124Z,19.12
2022-09-18T07:59:05.536Z,19.92
2022-09-18T08:01:35.458Z,21.19
2022-09-18T08:04:06.483Z,19.05
2022-09-18T08:06:36.552Z,17.44
2022-09-18T08:09:26.617Z,19.35
2022-09-18T08:12:09.175Z,20.57
2022-09-18T08:14:55.411Z,19.84
2022-09-18T08:17:47.262Z,17.72
2022-09-18T08:20:23.717Z,15.81
2022-09-18T08:22:54.124Z,14.68
2022-09-18T08:25:28.094Z,15.11
2022-09-18T08:28:01.756Z,18.39
2022-09-18T08:30:46.582Z,21.17
2022-09-18T08:33:14.052Z,18.77
2022-09-18T08:35:41.699Z,20.83
2022-09-18T08:38:28.159Z,21.51
2022-09-18T08:41:42.740Z,19.16
2022-09-18T08:44:28.019Z,17.85
2022-09-18T08:47:01.293Z,18.51
2022-09-18T08:49:34.014Z,16.30
2022-09-18T08:52:21.713Z,14.94
2022-09-18T08:55:27.939Z,12.93
2022-09-18T08:58:28.973Z,12.33
2022-09-18T09:01:15.990Z,11.85
2022-09-18T09:04:01.702Z,11.64
2022-09-18T09:06:57.319Z,12.14
2022-09-18T09:10:05.520Z,12.07
2022-09-18T09:13:15.497Z,11.60
2022-09-18T09:16:17.151Z,11.81
2022-09-18T09:19:01.343Z,12.14
2022-09-18T09:22:05.483Z,11.69
2022-09-18T09:24:58.023Z,11.44
2022-09-18T09:28:19.889Z,11.18
2022-09-18T09:31:18.474Z,11.15
2022-09-18T09:34:19.784Z,11.39
2022-09-18T09:37:04.071Z,11.64
2022-09-18T09:39:41.621Z,12.01
2022-09-18T09:42:34.418Z,11.77
2022-09-18T09:45:25.324Z,11.96
2022-09-18T09:48:23.091Z,11.43
2022-09-18T09:51:15.299Z,11.15
2022-09-18T09:53:44.606Z,11.66
2022-09-18T09:56:46.546Z,13.75
2022-09-18T09:59:38.222Z,16.95
2022-09-18T10:02:57.081Z,19.15
2022-09-18T10:05:57.760Z,21.13
2022-09-18T10:08:44.433Z,20.13
2022-09-18T10:11:13.480Z,18.90
2022-09-18T10:14:17.191Z,16.88
2022-09-18T10:16:52.201Z,15.82
2022-09-18T10:19:22.567Z,16.26
2022-09-18T10:21:54.731Z,17.85
2022-09-18T10:24:33.993Z,17.16
2022-09-18T10:27:14.338Z,17.42
2022-09-18T10:29:43.157Z,16.44
2022-09-18T10:32:37.928Z,16.12
2022-09-18T10:35:34.664Z,16.83
2022-09-18T10:38:02.255Z,15.65
2022-09-18T10:40:39.782Z,14.34
2022-09-18T10:43:18.640Z,13.69
2022-09-18T10:45:56.189Z,12.97
2022-09-18T10:48:44.502Z,13.38
2022-09-18T10:51:20.531Z,13.28
2022-09-18T10:54:29.881Z,12.82
2022-09-18T10:57:29.390Z,13.02
2022-09-18T10:59:58.738Z,12.68
2022-09-18T11:02:34.006Z,12.18
2022-09-18T11:05:03.215Z,11.31
2022-09-18T11:07:39.986Z,10.82
2022-09-18T11:10:09.737Z,10.89
2022-09-18T11:12:55.436Z,10.58
2022-09-18T11:15:36.369Z,10.57
2022-09-18T11:18:12.599Z,10.54
2022-09-18T11:20:45.173Z,10.74
2022-09-18T11:23:29.049Z,10.73
2022-09-18T11:26:28.916Z,10.83
2022-09-18T11:29:24.961Z,10.93
2022-09-18T11:32:31.900Z,10.77
2022-09-18T11:35:13.329Z,10.55
2022-09-18T11:37:53.112Z,10.47
2022-09-18T11:40:30.386Z,10.23
2022-09-18T11:42:58.975Z,10.11
2022-09-18T11:46:13.512Z,9.71
2022-09-18T11:49:05.884Z,9.41
2022-09-18T11:52:03.647Z,9.39
2022-09-18T11:55:00.195Z,9.68
2022-09-18T11:57:48.915Z,10.11
2022-09-18T12:00:19.389Z,10.12
2022-09-18T12:03:27.905Z,10.29
2022-09-18T12:06:10.444Z,10.29
2022-09-18T12:08:58.340Z,10.60
2022-09-18T12:12:08.914Z,10.56
2022-09-18T12:15:03.255Z,10.20
2022-09-18T12:17:56.854Z,10.12
2022-09-18T12:20:32.003Z,10.18
2022-09-18T12:23:02.754Z,9.98
2022-09-18T12:26:24.873Z,10.06
2022-09-18T12:29:22.749Z,10.18
2022-09-18T12:32:24.528Z,10.35
2022-09-18T12:34:59.515Z,10.14
2022-09-18T12:37:38.717Z,9.86
2022-09-18T12:40:43.856Z,10.05
2022-09-18T12:43:33.033Z,10.20
2022-09-18T12:46:26.332Z,10.55
2022-09-18T12:49:40.793Z,10.85
2022-09-18T12:52:55.168Z,11.46
2022-09-18T12:56:20.756Z,11.62
2022-09-18T12:59:28.079Z,11.65
2022-09-18T13:02:49.294Z,11.44
2022-09-18T13:05:35.530Z,11.30
2022-09-18T13:08:14.038Z,10.84
2022-09-18T13:10:47.318Z,10.63
2022-09-18T13:13:35.429Z,10.60
2022-09-18T13:16:15.560Z,10.55
2022-09-18T13:18:50.823Z,10.41
2022-09-18T13:21:29.985Z,10.22
2022-09-18T13:24:00.066Z,10.24
2022-09-18T13:26:33.352Z,10.34
2022-09-18T13:29:01.251Z,10.25
2022-09-18T13:31:29.718Z,10.25
2022-09-18T13:34:05.149Z,10.21
2022-09-18T13:36:40.080Z,10.06
2022-09-18T13:39:27.726Z,10.20
2022-09-18T13:42:00.485Z,10.30
2022-09-18T13:44:36.126Z,10.51
2022-09-18T13:47:15.168Z,10.70
2022-09-18T13:50:00.268Z,10.81
2022-09-18T13:52:29.616Z,10.89
2022-09-18T13:55:25.327Z,10.93
2022-09-18T13:58:13.240Z,10.84
2022-09-18T14:00:41.861Z,10.82
2022-09-18T14:03:09.114Z,10.88
2022-09-18T14:05:38.706Z,11.00
2022-09-18T14:08:38.680Z,10.95
2022-09-18T14:11:17.566Z,11.07
2022-09-18T14:13:58.997Z,11.56
2022-09-18T14:16:38.892Z,12.09
2022-09-18T14:19:36.281Z,12.48
2022-09-18T14:22:03.817Z,12.67
2022-09-18T14:24:49.515Z,12.05
2022-09-18T14:27:35.469Z,12.05
2022-09-18T14:30:17.404Z,12.37
2022-09-18T14:33:13.625Z,12.27
2022-09-18T14:35:58.904Z,12.25
2022-09-18T14:38:37.291Z,12.49
2022-09-18T14:41:19.423Z,12.54
2022-09-18T14:44:00.259Z,12.47
2022-09-18T14:46:28.781Z,12.54
2022-09-18T14:48:56.457Z,12.54
2022-09-18T14:51:28.324Z,12.30
2022-09-18T14:53:58.922Z,12.38
2022-09-18T14:56:29.518Z,12.32
2022-09-18T14:59:01.418Z,12.24
2022-09-18T15:01:32.085Z,12.14
2022-09-18T15:04:02.190Z,11.94
2022-09-18T15:06:54.635Z,11.88
2022-09-18T15:09:33.216Z,11.63
2022-09-18T15:12:02.985Z,11.70
2022-09-18T15:14:45.462Z,11.57
2022-09-18T15:17:22.025Z,11.42
2022-09-18T15:20:17.047Z,11.11
2022-09-18T15:22:44.619Z,10.77
2022-09-18T15:25:16.646Z,10.53
2022-09-18T15:27:45.555Z,10.56
2022-09-18T15:30:22.795Z,10.97
2022-09-18T15:33:05.260Z,11.40
2022-09-18T15:35:37.897Z,11.74
2022-09-18T15:38:14.291Z,11.75
2022-09-18T15:40:43.605Z,11.78
2022-09-18T15:43:33.759Z,11.54
2022-09-18T15:46:33.248Z,11.30
2022-09-18T15:49:04.116Z,11.30
2022-09-18T15:51:34.103Z,11.28
2022-09-18T15:54:13.592Z,11.36
2022-09-18T15:57:00.292Z,11.38
2022-09-18T15:59:35.208Z,11.21
2022-09-18T16:02:21.394Z,11.14
2022-09-18T16:04:48.809Z,11.23
2022-09-18T16:07:24.617Z,11.00
2022-09-18T16:09:52.188Z,10.90
2022-09-18T16:12:31.632Z,10.54
2022-09-18T16:15:15.756Z,10.40
2022-09-18T16:17:46.085Z,10.24
2022-09-18T16:20:24.743Z,10.15
2022-09-18T16:23:19.986Z,9.90
2022-09-18T16:26:13.022Z,9.76
2022-09-18T16:28:51.219Z,9.67
2022-09-18T16:31:22.536Z,9.51
2022-09-18T16:34:02.007Z,9.32
2022-09-18T16:36:39.104Z,9.32
2022-09-18T16:39:16.069Z,9.31
2022-09-18T16:41:45.425Z,9.27
2022-09-18T16:44:15.339Z,9.15
2022-09-18T16:46:49.869Z,9.04
2022-09-18T16:49:25.351Z,9.00
2022-09-18T16:51:55.720Z,9.00
2022-09-18T16:54:23.183Z,8.90
2022-09-18T16:57:20.439Z,8.95
2022-09-18T16:59:49.734Z,8.92
2022-09-18T17:02:23.305Z,8.86
2022-09-18T17:04:53.461Z,8.83
2022-09-18T17:07:20.720Z,8.78
2022-09-18T17:09:47.995Z,8.74
2022-09-18T17:12:15.287Z,8.63
2022-09-18T17:14:42.482Z,8.61
2022-09-18T17:17:09.840Z,8.61
2022-09-18T17:19:39.407Z,8.50
2022-09-18T17:22:07.759Z,8.55
2022-09-18T17:24:35.076Z,8.60
2022-09-18T17:27:02.452Z,8.58
2022-09-18T17:29:29.819Z,8.57
2022-09-18T17:31:57.446Z,8.53
2022-09-18T17:34:24.848Z,8.61
2022-09-18T17:36:52.081Z,8.60
2022-09-18T17:39:19.417Z,8.54
2022-09-18T17:41:46.739Z,8.57
2022-09-18T17:44:15.354Z,8.56
2022-09-18T17:46:42.724Z,8.50
2022-09-18T17:49:10.109Z,8.52
2022-09-18T17:51:37.622Z,8.48
2022-09-18T17:54:05.991Z,8.37
2022-09-18T17:56:34.272Z,8.33
2022-09-18T17:59:06.237Z,8.28
2022-09-18T18:01:37.752Z,8.36
2022-09-18T18:04:06.804Z,8.38
2022-09-18T18:06:35.738Z,8.42
2022-09-18T18:09:05.439Z,8.52
2022-09-18T18:11:33.442Z,8.64
2022-09-18T18:14:00.812Z,8.60
2022-09-18T18:16:31.161Z,8.61
2022-09-18T18:19:02.781Z,8.54
2022-09-18T18:21:32.342Z,8.57
2022-09-18T18:24:04.819Z,8.51
2022-09-18T18:26:32.640Z,8.49
2022-09-18T18:29:00.772Z,8.48
2022-09-18T18:31:28.905Z,8.43
2022-09-18T18:33:57.498Z,8.35
2022-09-18T18:36:31.374Z,8.33
2022-09-18T18:39:01.309Z,8.33
2022-09-18T18:41:31.580Z,8.36
2022-09-18T18:44:03.263Z,8.28
2022-09-18T18:46:36.325Z,8.25
2022-09-18T18:49:11.083Z,8.27
2022-09-18T18:51:46.009Z,8.21
2022-09-18T18:54:19.204Z,8.25
2022-09-18T18:56:48.220Z,8.28
2022-09-18T18:59:18.295Z,8.28
2022-09-18T19:01:47.364Z,8.38
2022-09-18T19:04:19.198Z,8.40
2022-09-18T19:06:48.779Z,8.47
2022-09-18T19:09:24.406Z,8.53
2022-09-18T19:11:54.035Z,8.60
2022-09-18T19:14:30.317Z,8.62
2022-09-18T19:16:58.245Z,8.63
2022-09-18T19:19:28.427Z,8.66
2022-09-18T19:21:59.836Z,8.76
2022-09-18T19:24:28.326Z,8.90
2022-09-18T19:26:55.619Z,9.00
2022-09-18T19:29:22.958Z,9.10
2022-09-18T19:31:50.896Z,9.13
2022-09-18T19:34:21.045Z,9.16
2022-09-18T19:36:50.489Z,9.23
2022-09-18T19:39:21.095Z,9.32
2022-09-18T19:42:12.361Z,9.32
2022-09-18T19:44:49.006Z,9.40
2022-09-18T19:47:41.035Z,9.42
2022-09-18T19:50:25.205Z,9.46
2022-09-18T19:52:52.897Z,9.51
2022-09-18T19:55:21.078Z,9.50
2022-09-18T19:57:51.807Z,9.47
2022-09-18T20:00:18.989Z,9.51
2022-09-18T20:02:46.763Z,9.57
2022-09-18T20:05:14.031Z,9.58
2022-09-18T20:07:42.269Z,9.54
2022-09-18T20:10:13.261Z,9.66
2022-09-18T20:12:42.250Z,9.72
2022-09-18T20:15:11.551Z,9.66
2022-09-18T20:17:39.891Z,9.63
2022-09-18T20:20:08.804Z,9.67
2022-09-18T20:22:39.939Z,9.64
2022-09-18T20:25:08.967Z,9.64
2022-09-18T20:27:40.836Z,9.65
2022-09-18T20:30:12.696Z,9.66
2022-09-18T20:32:39.947Z,9.73
2022-09-18T20:35:07.710Z,9.71
2022-09-18T20:37:35.058Z,9.64
2022-09-18T20:40:05.361Z,9.54
2022-09-18T20:42:34.612Z,9.54
2022-09-18T20:45:02.551Z,9.45
2022-09-18T20:47:37.569Z,9.41
2022-09-18T20:50:15.107Z,9.43
2022-09-18T20:52:43.755Z,9.42
2022-09-18T20:55:15.782Z,9.41
2022-09-18T20:57:46.578Z,9.42
2022-09-18T21:00:16.290Z,9.28
2022-09-18T21:02:49.382Z,9.34
2022-09-18T21:05:17.052Z,9.36
2022-09-18T21:07:45.733Z,9.44
2022-09-18T21:10:14.520Z,9.42
2022-09-18T21:12:41.880Z,9.41
2022-09-18T21:15:15.633Z,9.41
2022-09-18T21:17:43.170Z,9.36
2022-09-18T21:20:11.002Z,9.46
2022-09-18T21:23:01.178Z,9.50
2022-09-18T21:25:31.060Z,9.50
2022-09-18T21:27:58.416Z,9.55
2022-09-18T21:30:26.751Z,9.57
2022-09-18T21:32:55.737Z,9.59
2022-09-18T21:35:23.258Z,9.67
2022-09-18T21:37:52.170Z,9.73
2022-09-18T21:40:19.451Z,9.66
2022-09-18T21:42:47.737Z,9.73
2022-09-18T21:45:19.612Z,9.70
2022-09-18T21:47:49.640Z,9.62
2022-09-18T21:50:17.130Z,9.66
2022-09-18T21:52:44.851Z,9.69
2022-09-18T21:55:12.272Z,9.71
2022-09-18T21:57:40.229Z,9.66
2022-09-18T22:00:09.788Z,9.59
2022-09-18T22:02:41.124Z,9.66
2022-09-18T22:05:09.181Z,9.60
2022-09-18T22:07:37.499Z,9.62
2022-09-18T22:10:06.737Z,9.69
2022-09-18T22:12:34.140Z,9.57
2022-09-18T22:15:01.459Z,9.51
2022-09-18T22:17:28.785Z,9.44
2022-09-18T22:19:56.588Z,9.48
2022-09-18T22:22:23.882Z,9.39
2022-09-18T22:24:51.155Z,9.34
2022-09-18T22:27:18.573Z,9.26
2022-09-18T22:29:46.071Z,9.19
2022-09-18T22:32:13.377Z,9.18
2022-09-18T22:34:41.672Z,9.18
2022-09-18T22:37:11.633Z,9.14
2022-09-18T22:39:38.866Z,9.19
2022-09-18T22:42:06.119Z,9.11
2022-09-18T22:44:33.460Z,9.11
2022-09-18T22:47:02.180Z,8.98
2022-09-18T22:49:29.416Z,9.12
2022-09-18T22:51:56.840Z,9.02
2022-09-18T22:54:26.531Z,8.99
2022-09-18T22:56:56.935Z,9.02
2022-09-18T22:59:26.789Z,8.95
2022-09-18T23:02:04.690Z,8.94
2022-09-18T23:04:33.783Z,8.93
2022-09-18T23:07:01.771Z,8.99
2022-09-18T23:09:29.685Z,8.98
2022-09-18T23:11:58.265Z,8.95
2022-09-18T23:14:28.666Z,8.93
2022-09-18T23:16:57.433Z,8.94
2022-09-18T23:19:29.339Z,8.97
2022-09-18T23:21:56.954Z,8.79
2022-09-18T23:24:28.569Z,8.91
2022-09-18T23:26:58.279Z,8.86
2022-09-18T23:29:28.527Z,8.88
2022-09-18T23:31:59.149Z,8.85
2022-09-18T23:34:31.476Z,8.76
2022-09-18T23:36:59.957Z,8.77
2022-09-18T23:39:34.668Z,8.66
2022-09-18T23:42:03.824Z,8.59
2022-09-18T23:44:31.690Z,8.59
2022-09-18T23:47:00.108Z,8.63
2022-09-18T23:49:28.512Z,8.67
2022-09-18T23:51:57.104Z,8.64
2022-09-18T23:54:27.352Z,8.50
2022-09-18T23:56:55.073Z,8.62
2022-09-18T23:59:24.630Z,8.63
